Home   Weather   Hungary   Budapest   Past weeks
Flag for Hungary

Past Weather in Budapest, Hungary — Yesterday and Last 2 Weeks

Currently: 43 °F. Light rain. Cloudy. (Weather station: Ferenc Liszt International Airport, Hungary). See more current weather

Past Weather in Budapest — Graph

°F

Budapest Temperature Yesterday

Maximum temperature yesterday: 48 °F (at 4:00 pm)
Minimum temperature yesterday: 36 °F (at 2:30 am)
Average temperature yesterday: 41 °F

High & Low Weather Summary for the Past Weeks

 TemperatureHumidityPressure
High75 °F (Apr 1, 3:00 pm)100% (Apr 9, 5:30 am)30.36 "Hg (Apr 9, 5:30 am)
Low19 °F (Apr 9, 5:00 am)27% (Apr 5, 3:00 pm)29.56 "Hg (Apr 6, 2:00 am)
Average46 °F62%30.01 "Hg
* Reported Mar 31 11:00 am — Apr 15 11:30 am, Budapest. Weather by CustomWeather, © 2021

Note: Actual official high and low records may vary slightly from our data, if they occured in-between our weather recording intervals... More about our weather records

Budapest Weather History for the Previous 24 Hours

Scroll right to see more
 ConditionsComfort  
Time TempWeatherWind HumidityBarometerVisibility
11:30 am
Thu, Apr 15
43 °FLight rain. Cloudy.14 mph76%30.12 "HgN/A
11:00 am43 °FLight rain. Cloudy.13 mph71%30.12 "HgN/A
10:30 am43 °FLight rain. Cloudy.14 mph71%30.12 "HgN/A
10:00 am43 °FLight rain. Cloudy.13 mph71%30.09 "HgN/A
9:30 am41 °FLight rain. Broken clouds.13 mph76%30.09 "HgN/A
9:00 am41 °FLight rain. Broken clouds.12 mph76%30.09 "HgN/A
8:30 am41 °FBroken clouds.10 mph76%30.09 "HgN/A
8:00 am39 °FBroken clouds.9 mph81%30.09 "HgN/A
7:30 am39 °FBroken clouds.8 mph81%30.09 "HgN/A
7:00 am39 °FLight rain. Broken clouds.7 mph81%30.09 "HgN/A
6:30 am37 °FLight rain. Mostly cloudy.8 mph87%30.09 "HgN/A
6:00 am37 °FLight rain. More clouds than sun.7 mph87%30.09 "HgN/A
5:30 am37 °FLight rain. Mostly cloudy.7 mph81%30.09 "HgN/A
5:00 am37 °FClear.6 mph81%30.09 "Hg10 mi
4:30 am37 °FClear.6 mph81%30.09 "Hg10 mi
4:00 am37 °FClear.6 mph81%30.09 "Hg10 mi
3:30 am37 °FClear.6 mph81%30.09 "Hg10 mi
3:00 am39 °FPartly cloudy.6 mph75%30.09 "HgN/A
2:30 am39 °FMostly cloudy.7 mph75%30.09 "HgN/A
2:00 am39 °FPassing clouds.8 mph75%30.09 "HgN/A
1:30 am39 °FOvercast.9 mph75%30.09 "HgN/A
1:00 am41 °FOvercast.10 mph70%30.09 "HgN/A
12:30 am41 °FPassing clouds.13 mph70%30.09 "HgN/A
12:00 am41 °FClear.9 mph70%30.12 "Hg10 mi
11:30 pm
Wed, Apr 14
41 °FPassing clouds.9 mph70%30.09 "HgN/A
11:00 pm41 °FPassing clouds.13 mph66%30.09 "HgN/A
10:30 pm41 °FClear.12 mph66%30.09 "Hg10 mi
10:00 pm41 °FClear.12 mph66%30.09 "Hg10 mi
9:30 pm43 °FClear.12 mph61%30.09 "Hg10 mi
9:00 pm43 °FClear.14 mph61%30.09 "Hg10 mi
8:30 pm43 °FClear.15 mph61%30.09 "Hg10 mi
8:00 pm45 °FClear.16 mph57%30.07 "Hg10 mi
7:30 pm45 °FClear.15 mph53%30.07 "Hg10 mi
7:00 pm46 °FSunny.13 mph46%30.07 "Hg10 mi
6:30 pm46 °FSunny.15 mph46%30.07 "Hg10 mi
6:00 pm46 °FSunny.15 mph50%30.07 "Hg10 mi
5:30 pm48 °FSunny.12 mph46%30.04 "Hg10 mi
5:00 pm48 °FSunny.12 mph46%30.04 "Hg10 mi
4:30 pm46 °FSunny.13 mph50%30.04 "Hg10 mi
4:00 pm48 °FScattered clouds.13 mph50%30.04 "HgN/A
3:30 pm46 °FPassing clouds.6 mph62%30.04 "HgN/A
3:00 pm45 °FLight rain. Partly sunny.3 mph66%30.04 "HgN/A
2:30 pm45 °FLight rain. Broken clouds.3 mph61%30.07 "HgN/A
2:00 pm45 °FPassing clouds.5 mph66%30.07 "HgN/A
1:30 pm45 °FPassing clouds.5 mph66%30.07 "HgN/A
1:00 pm43 °FSunny.7 mph71%30.07 "Hg10 mi
12:30 pm43 °FPartly sunny.9 mph71%30.07 "HgN/A
Weather by CustomWeather, © 2021

See weather overview